Kingston Mines, Illinois
Current Conditions -  °F | °C
As of 2:13 AM on Friday 24 Oct 2014 (Local Time) from KPIA Reporting Station
Overcast Overcast  
Wind Chill: 54°   Ceiling: 1800
Heat Index: 54°   Visibility: 10mi
Dew Point: 46°   Wind: 0mph
Humidity: 75%   Direction: NA
Pressure: 30.05"   Gusts: NA
Location:  40.56°N, 89.77°W
Report Text: KPIA 240713Z 00000KT 10SM BKN018 OVC043 12/08 A3005 RMK AO2 T01220078
Loading
Personal Weather Stations






























Interactive Weather Map
Tropical Storm Tracking
New forecast layout! Learn more

10-Day Weather Forecast

Advertisements
Track Severe Weather on mobile